Carlisle, Minnesota
Current Conditions -  °F | °C
As of 2:14 AM on Saturday 25 Oct 2014 (Local Time) from KFFM Reporting Station
Clear Clear  
Wind Chill: 44°   Ceiling: Unl
Heat Index: 48°   Visibility: 10mi
Dew Point: 28°   Wind: 9mph
Humidity: 46%   Direction: 320°NW
Pressure: 29.99"   Gusts: NA
Location:  46.2829°N, 96.0991°W
Report Text: KFFM 250714Z AUTO 32008KT 10SM CLR 09/M02 A2999 RMK AO2
Loading
Personal Weather Stations






























Interactive Weather Map
Tropical Storm Tracking
New forecast layout! Learn more

10-Day Weather Forecast

Advertisements
Track Severe Weather on mobile